sensor_id;sensor_type;location;lat;lon;timestamp;temperature;humidity
51996;DHT22;38010;53.264;6.592;2022-08-21T00:00:34;22.90;99.90
51996;DHT22;38010;53.264;6.592;2022-08-21T00:03:08;22.90;99.90
51996;DHT22;38010;53.264;6.592;2022-08-21T00:05:38;22.90;99.90
51996;DHT22;38010;53.264;6.592;2022-08-21T00:08:04;22.90;99.90
51996;DHT22;38010;53.264;6.592;2022-08-21T00:10:31;22.90;99.90
51996;DHT22;38010;53.264;6.592;2022-08-21T00:12:57;22.90;99.90
51996;DHT22;38010;53.264;6.592;2022-08-21T00:15:26;22.90;99.90
51996;DHT22;38010;53.264;6.592;2022-08-21T00:17:53;22.90;99.90
51996;DHT22;38010;53.264;6.592;2022-08-21T00:20:20;22.90;99.90
51996;DHT22;38010;53.264;6.592;2022-08-21T00:22:48;22.90;99.90
51996;DHT22;38010;53.264;6.592;2022-08-21T00:25:15;22.90;99.90
51996;DHT22;38010;53.264;6.592;2022-08-21T00:27:42;22.90;99.90
51996;DHT22;38010;53.264;6.592;2022-08-21T00:30:09;22.90;99.90
51996;DHT22;38010;53.264;6.592;2022-08-21T00:32:37;22.90;99.90
51996;DHT22;38010;53.264;6.592;2022-08-21T00:35:06;22.80;99.90
51996;DHT22;38010;53.264;6.592;2022-08-21T00:37:33;22.90;99.90
51996;DHT22;38010;53.264;6.592;2022-08-21T00:39:59;22.90;99.90
51996;DHT22;38010;53.264;6.592;2022-08-21T00:42:25;22.90;99.90
51996;DHT22;38010;53.264;6.592;2022-08-21T00:44:51;22.80;99.90
51996;DHT22;38010;53.264;6.592;2022-08-21T00:47:18;22.90;99.90
51996;DHT22;38010;53.264;6.592;2022-08-21T00:49:45;22.80;99.90
51996;DHT22;38010;53.264;6.592;2022-08-21T00:52:20;22.80;99.90
51996;DHT22;38010;53.264;6.592;2022-08-21T00:54:48;22.80;99.90
51996;DHT22;38010;53.264;6.592;2022-08-21T00:57:27;22.80;99.90
51996;DHT22;38010;53.264;6.592;2022-08-21T00:59:56;22.80;99.90
51996;DHT22;38010;53.264;6.592;2022-08-21T01:02:22;22.80;99.90
51996;DHT22;38010;53.264;6.592;2022-08-21T01:04:48;22.80;99.90
51996;DHT22;38010;53.264;6.592;2022-08-21T01:07:14;22.80;99.90
51996;DHT22;38010;53.264;6.592;2022-08-21T01:09:40;22.80;99.90
51996;DHT22;38010;53.264;6.592;2022-08-21T01:12:06;22.80;99.90
51996;DHT22;38010;53.264;6.592;2022-08-21T01:14:33;22.80;99.90
51996;DHT22;38010;53.264;6.592;2022-08-21T01:16:59;22.80;99.90
51996;DHT22;38010;53.264;6.592;2022-08-21T01:19:26;22.80;99.90
51996;DHT22;38010;53.264;6.592;2022-08-21T01:21:53;22.80;99.90
51996;DHT22;38010;53.264;6.592;2022-08-21T01:24:19;22.80;99.90
51996;DHT22;38010;53.264;6.592;2022-08-21T01:26:45;22.80;99.90
51996;DHT22;38010;53.264;6.592;2022-08-21T01:32:07;22.80;99.90
51996;DHT22;38010;53.264;6.592;2022-08-21T01:34:37;22.80;99.90
51996;DHT22;38010;53.264;6.592;2022-08-21T01:37:04;22.80;99.90
51996;DHT22;38010;53.264;6.592;2022-08-21T01:39:30;22.80;99.90
51996;DHT22;38010;53.264;6.592;2022-08-21T01:41:55;22.80;99.90
51996;DHT22;38010;53.264;6.592;2022-08-21T01:44:22;22.80;99.90
51996;DHT22;38010;53.264;6.592;2022-08-21T01:46:47;22.70;99.90
51996;DHT22;38010;53.264;6.592;2022-08-21T01:49:14;22.70;99.90
51996;DHT22;38010;53.264;6.592;2022-08-21T01:51:41;22.70;99.90
51996;DHT22;38010;53.264;6.592;2022-08-21T01:54:07;22.70;99.90
51996;DHT22;38010;53.264;6.592;2022-08-21T01:56:47;22.70;99.90
51996;DHT22;38010;53.264;6.592;2022-08-21T01:59:14;22.70;99.90
51996;DHT22;38010;53.264;6.592;2022-08-21T02:01:40;22.70;99.90
51996;DHT22;38010;53.264;6.592;2022-08-21T02:04:08;22.70;99.90
51996;DHT22;38010;53.264;6.592;2022-08-21T02:06:34;22.70;99.90
51996;DHT22;38010;53.264;6.592;2022-08-21T02:09:03;22.70;99.90
51996;DHT22;38010;53.264;6.592;2022-08-21T02:11:31;22.70;99.90
51996;DHT22;38010;53.264;6.592;2022-08-21T02:13:57;22.70;99.90
51996;DHT22;38010;53.264;6.592;2022-08-21T02:16:24;22.70;99.90
51996;DHT22;38010;53.264;6.592;2022-08-21T02:18:50;22.70;99.90
51996;DHT22;38010;53.264;6.592;2022-08-21T02:21:16;22.70;99.90
51996;DHT22;38010;53.264;6.592;2022-08-21T02:23:42;22.70;99.90
51996;DHT22;38010;53.264;6.592;2022-08-21T02:26:08;22.70;99.90
51996;DHT22;38010;53.264;6.592;2022-08-21T02:28:36;22.70;99.90
51996;DHT22;38010;53.264;6.592;2022-08-21T02:31:02;22.70;99.90
51996;DHT22;38010;53.264;6.592;2022-08-21T02:33:28;22.70;99.90
51996;DHT22;38010;53.264;6.592;2022-08-21T02:35:54;22.70;99.90
51996;DHT22;38010;53.264;6.592;2022-08-21T02:38:23;22.70;99.90
51996;DHT22;38010;53.264;6.592;2022-08-21T02:40:50;22.70;99.90
51996;DHT22;38010;53.264;6.592;2022-08-21T02:43:17;22.70;99.90
51996;DHT22;38010;53.264;6.592;2022-08-21T02:45:44;22.70;99.90
51996;DHT22;38010;53.264;6.592;2022-08-21T02:48:13;22.70;99.90
51996;DHT22;38010;53.264;6.592;2022-08-21T02:50:51;22.70;99.90
51996;DHT22;38010;53.264;6.592;2022-08-21T02:53:17;22.70;99.90
51996;DHT22;38010;53.264;6.592;2022-08-21T02:55:45;22.60;99.90
51996;DHT22;38010;53.264;6.592;2022-08-21T02:58:12;22.60;99.90
51996;DHT22;38010;53.264;6.592;2022-08-21T03:00:38;22.60;99.90
51996;DHT22;38010;53.264;6.592;2022-08-21T03:03:04;22.60;99.90
51996;DHT22;38010;53.264;6.592;2022-08-21T03:05:33;22.60;99.90
51996;DHT22;38010;53.264;6.592;2022-08-21T03:08:01;22.70;99.90
51996;DHT22;38010;53.264;6.592;2022-08-21T03:10:27;22.60;99.90
51996;DHT22;38010;53.264;6.592;2022-08-21T03:12:53;22.60;99.90
51996;DHT22;38010;53.264;6.592;2022-08-21T03:15:21;22.60;99.90
51996;DHT22;38010;53.264;6.592;2022-08-21T03:17:47;22.60;99.90
51996;DHT22;38010;53.264;6.592;2022-08-21T03:20:16;22.60;99.90
51996;DHT22;38010;53.264;6.592;2022-08-21T03:22:42;22.60;99.90
51996;DHT22;38010;53.264;6.592;2022-08-21T03:25:08;22.60;99.90
51996;DHT22;38010;53.264;6.592;2022-08-21T03:27:34;22.60;99.90
51996;DHT22;38010;53.264;6.592;2022-08-21T03:30:01;22.60;99.90
51996;DHT22;38010;53.264;6.592;2022-08-21T03:32:26;22.60;99.90
51996;DHT22;38010;53.264;6.592;2022-08-21T03:34:52;22.50;99.90
51996;DHT22;38010;53.264;6.592;2022-08-21T03:37:18;22.60;99.90
51996;DHT22;38010;53.264;6.592;2022-08-21T03:39:44;22.60;99.90
51996;DHT22;38010;53.264;6.592;2022-08-21T03:42:11;22.60;99.90
51996;DHT22;38010;53.264;6.592;2022-08-21T03:44:36;22.60;99.90
51996;DHT22;38010;53.264;6.592;2022-08-21T03:47:03;22.60;99.90
51996;DHT22;38010;53.264;6.592;2022-08-21T03:49:29;22.50;99.90
51996;DHT22;38010;53.264;6.592;2022-08-21T03:51:55;22.50;99.90
51996;DHT22;38010;53.264;6.592;2022-08-21T03:54:21;22.60;99.90
51996;DHT22;38010;53.264;6.592;2022-08-21T03:56:47;22.50;99.90
51996;DHT22;38010;53.264;6.592;2022-08-21T03:59:13;22.50;99.90
51996;DHT22;38010;53.264;6.592;2022-08-21T04:01:39;22.50;99.90
51996;DHT22;38010;53.264;6.592;2022-08-21T04:04:05;22.50;99.90
51996;DHT22;38010;53.264;6.592;2022-08-21T04:06:32;22.50;99.90
51996;DHT22;38010;53.264;6.592;2022-08-21T04:08:57;22.50;99.90
51996;DHT22;38010;53.264;6.592;2022-08-21T04:11:23;22.50;99.90
51996;DHT22;38010;53.264;6.592;2022-08-21T04:13:49;22.50;99.90
51996;DHT22;38010;53.264;6.592;2022-08-21T04:16:15;22.50;99.90
51996;DHT22;38010;53.264;6.592;2022-08-21T04:18:41;22.50;99.90
51996;DHT22;38010;53.264;6.592;2022-08-21T04:21:09;22.50;99.90
51996;DHT22;38010;53.264;6.592;2022-08-21T04:23:36;22.50;99.90
51996;DHT22;38010;53.264;6.592;2022-08-21T04:26:02;22.50;99.90
51996;DHT22;38010;53.264;6.592;2022-08-21T04:28:28;22.50;99.90
51996;DHT22;38010;53.264;6.592;2022-08-21T04:30:55;22.50;99.90
51996;DHT22;38010;53.264;6.592;2022-08-21T04:33:21;22.50;99.90
51996;DHT22;38010;53.264;6.592;2022-08-21T04:35:48;22.50;99.90
51996;DHT22;38010;53.264;6.592;2022-08-21T04:38:14;22.50;99.90
51996;DHT22;38010;53.264;6.592;2022-08-21T04:40:40;22.50;99.90
51996;DHT22;38010;53.264;6.592;2022-08-21T04:43:08;22.50;99.90
51996;DHT22;38010;53.264;6.592;2022-08-21T04:45:40;22.50;99.90
51996;DHT22;38010;53.264;6.592;2022-08-21T04:48:08;22.50;99.90
51996;DHT22;38010;53.264;6.592;2022-08-21T04:53:40;22.50;99.90
51996;DHT22;38010;53.264;6.592;2022-08-21T04:56:13;22.50;99.90
51996;DHT22;38010;53.264;6.592;2022-08-21T04:58:41;22.40;99.90
51996;DHT22;38010;53.264;6.592;2022-08-21T05:01:13;22.40;99.90
51996;DHT22;38010;53.264;6.592;2022-08-21T05:03:41;22.50;99.90
51996;DHT22;38010;53.264;6.592;2022-08-21T05:06:08;22.40;99.90
51996;DHT22;38010;53.264;6.592;2022-08-21T05:08:36;22.40;99.90
51996;DHT22;38010;53.264;6.592;2022-08-21T05:11:03;22.40;99.90
51996;DHT22;38010;53.264;6.592;2022-08-21T05:13:29;22.40;99.90
51996;DHT22;38010;53.264;6.592;2022-08-21T05:15:55;22.40;99.90
51996;DHT22;38010;53.264;6.592;2022-08-21T05:18:21;22.40;99.90
51996;DHT22;38010;53.264;6.592;2022-08-21T05:20:47;22.40;99.90
51996;DHT22;38010;53.264;6.592;2022-08-21T05:23:13;22.40;99.90
51996;DHT22;38010;53.264;6.592;2022-08-21T05:25:40;22.40;99.90
51996;DHT22;38010;53.264;6.592;2022-08-21T05:28:06;22.40;99.90
51996;DHT22;38010;53.264;6.592;2022-08-21T05:30:33;22.40;99.90
51996;DHT22;38010;53.264;6.592;2022-08-21T05:33:01;22.40;99.90
51996;DHT22;38010;53.264;6.592;2022-08-21T05:35:28;22.40;99.90
51996;DHT22;38010;53.264;6.592;2022-08-21T05:37:54;22.40;99.90
51996;DHT22;38010;53.264;6.592;2022-08-21T05:40:21;22.40;99.90
51996;DHT22;38010;53.264;6.592;2022-08-21T05:42:46;22.40;99.90
51996;DHT22;38010;53.264;6.592;2022-08-21T05:45:12;22.40;99.90
51996;DHT22;38010;53.264;6.592;2022-08-21T05:47:38;22.40;99.90
51996;DHT22;38010;53.264;6.592;2022-08-21T05:50:05;22.40;99.90
51996;DHT22;38010;53.264;6.592;2022-08-21T05:52:31;22.40;99.90
51996;DHT22;38010;53.264;6.592;2022-08-21T05:54:57;22.40;99.90
51996;DHT22;38010;53.264;6.592;2022-08-21T05:57:23;22.40;99.90
51996;DHT22;38010;53.264;6.592;2022-08-21T05:59:49;22.40;99.90
51996;DHT22;38010;53.264;6.592;2022-08-21T06:02:17;22.40;99.90
51996;DHT22;38010;53.264;6.592;2022-08-21T06:04:43;22.40;99.90
51996;DHT22;38010;53.264;6.592;2022-08-21T06:07:09;22.40;99.90
51996;DHT22;38010;53.264;6.592;2022-08-21T06:09:35;22.40;99.90
51996;DHT22;38010;53.264;6.592;2022-08-21T06:12:11;22.40;99.90
51996;DHT22;38010;53.264;6.592;2022-08-21T06:14:39;22.40;99.90
51996;DHT22;38010;53.264;6.592;2022-08-21T06:17:07;22.40;99.90
51996;DHT22;38010;53.264;6.592;2022-08-21T06:19:33;22.30;99.90
51996;DHT22;38010;53.264;6.592;2022-08-21T06:21:59;22.40;99.90
51996;DHT22;38010;53.264;6.592;2022-08-21T06:24:25;22.40;99.90
51996;DHT22;38010;53.264;6.592;2022-08-21T06:26:51;22.40;99.90
51996;DHT22;38010;53.264;6.592;2022-08-21T06:29:17;22.30;99.90
51996;DHT22;38010;53.264;6.592;2022-08-21T06:31:43;22.30;99.90
51996;DHT22;38010;53.264;6.592;2022-08-21T06:34:09;22.30;99.90
51996;DHT22;38010;53.264;6.592;2022-08-21T06:36:35;22.30;99.90
51996;DHT22;38010;53.264;6.592;2022-08-21T06:39:01;22.30;99.90
51996;DHT22;38010;53.264;6.592;2022-08-21T06:41:26;22.40;99.90
51996;DHT22;38010;53.264;6.592;2022-08-21T06:43:53;22.40;99.90
51996;DHT22;38010;53.264;6.592;2022-08-21T06:46:19;22.30;99.90
51996;DHT22;38010;53.264;6.592;2022-08-21T06:48:45;22.30;99.90
51996;DHT22;38010;53.264;6.592;2022-08-21T06:51:10;22.40;99.90
51996;DHT22;38010;53.264;6.592;2022-08-21T06:53:36;22.30;99.90
51996;DHT22;38010;53.264;6.592;2022-08-21T06:56:02;22.30;99.90
51996;DHT22;38010;53.264;6.592;2022-08-21T06:58:28;22.30;99.90
51996;DHT22;38010;53.264;6.592;2022-08-21T07:00:55;22.30;99.90
51996;DHT22;38010;53.264;6.592;2022-08-21T07:05:48;22.30;99.90
51996;DHT22;38010;53.264;6.592;2022-08-21T07:08:14;22.30;99.90
51996;DHT22;38010;53.264;6.592;2022-08-21T07:10:40;22.30;99.90
51996;DHT22;38010;53.264;6.592;2022-08-21T07:13:06;22.30;99.90
51996;DHT22;38010;53.264;6.592;2022-08-21T07:15:32;22.30;99.90
51996;DHT22;38010;53.264;6.592;2022-08-21T07:18:00;22.30;99.90
51996;DHT22;38010;53.264;6.592;2022-08-21T07:20:28;22.30;99.90
51996;DHT22;38010;53.264;6.592;2022-08-21T07:22:54;22.30;99.90
51996;DHT22;38010;53.264;6.592;2022-08-21T07:25:20;22.30;99.90
51996;DHT22;38010;53.264;6.592;2022-08-21T07:27:46;22.30;99.90
51996;DHT22;38010;53.264;6.592;2022-08-21T07:30:12;22.30;99.90
51996;DHT22;38010;53.264;6.592;2022-08-21T07:32:37;22.30;99.90
51996;DHT22;38010;53.264;6.592;2022-08-21T07:35:03;22.40;99.90
51996;DHT22;38010;53.264;6.592;2022-08-21T07:37:29;22.20;99.90
51996;DHT22;38010;53.264;6.592;2022-08-21T07:39:55;22.50;99.90
51996;DHT22;38010;53.264;6.592;2022-08-21T07:42:21;22.90;99.90
51996;DHT22;38010;53.264;6.592;2022-08-21T07:44:47;22.30;99.90
51996;DHT22;38010;53.264;6.592;2022-08-21T07:47:13;22.30;99.90
51996;DHT22;38010;53.264;6.592;2022-08-21T07:49:38;22.30;99.90
51996;DHT22;38010;53.264;6.592;2022-08-21T07:52:05;22.30;99.90
51996;DHT22;38010;53.264;6.592;2022-08-21T07:54:31;22.30;99.90
51996;DHT22;38010;53.264;6.592;2022-08-21T07:56:56;22.30;99.90
51996;DHT22;38010;53.264;6.592;2022-08-21T07:59:22;22.30;99.90
51996;DHT22;38010;53.264;6.592;2022-08-21T08:01:48;22.30;99.90
51996;DHT22;38010;53.264;6.592;2022-08-21T08:04:13;22.30;99.90
51996;DHT22;38010;53.264;6.592;2022-08-21T08:06:41;22.30;99.90
51996;DHT22;38010;53.264;6.592;2022-08-21T08:09:06;22.30;99.90
51996;DHT22;38010;53.264;6.592;2022-08-21T08:11:32;22.30;99.90
51996;DHT22;38010;53.264;6.592;2022-08-21T08:13:58;22.30;99.90
51996;DHT22;38010;53.264;6.592;2022-08-21T08:16:25;22.30;99.90
51996;DHT22;38010;53.264;6.592;2022-08-21T08:18:51;22.30;99.90
51996;DHT22;38010;53.264;6.592;2022-08-21T08:21:17;22.30;99.90
51996;DHT22;38010;53.264;6.592;2022-08-21T08:23:46;22.30;99.90
51996;DHT22;38010;53.264;6.592;2022-08-21T08:26:12;22.30;99.90
51996;DHT22;38010;53.264;6.592;2022-08-21T08:28:38;22.30;99.90
51996;DHT22;38010;53.264;6.592;2022-08-21T08:31:03;22.30;99.90
51996;DHT22;38010;53.264;6.592;2022-08-21T08:33:29;22.30;99.90
51996;DHT22;38010;53.264;6.592;2022-08-21T08:35:55;22.30;99.90
51996;DHT22;38010;53.264;6.592;2022-08-21T08:38:23;22.30;99.90
51996;DHT22;38010;53.264;6.592;2022-08-21T08:40:54;22.30;99.90
51996;DHT22;38010;53.264;6.592;2022-08-21T08:43:21;22.30;99.90
51996;DHT22;38010;53.264;6.592;2022-08-21T08:45:50;22.30;99.90
51996;DHT22;38010;53.264;6.592;2022-08-21T08:48:39;22.30;99.90
51996;DHT22;38010;53.264;6.592;2022-08-21T08:51:11;22.30;99.90
51996;DHT22;38010;53.264;6.592;2022-08-21T08:54:02;22.30;99.90
51996;DHT22;38010;53.264;6.592;2022-08-21T08:56:31;22.20;99.90
51996;DHT22;38010;53.264;6.592;2022-08-21T08:59:02;22.30;99.90
51996;DHT22;38010;53.264;6.592;2022-08-21T09:01:32;22.30;99.90
51996;DHT22;38010;53.264;6.592;2022-08-21T09:03:58;22.20;99.90
51996;DHT22;38010;53.264;6.592;2022-08-21T09:09:25;22.30;99.90
51996;DHT22;38010;53.264;6.592;2022-08-21T09:12:12;22.30;99.90
51996;DHT22;38010;53.264;6.592;2022-08-21T09:22:37;22.30;99.90
51996;DHT22;38010;53.264;6.592;2022-08-21T09:25:21;22.30;99.90
51996;DHT22;38010;53.264;6.592;2022-08-21T09:27:48;22.30;99.90
51996;DHT22;38010;53.264;6.592;2022-08-21T09:30:14;22.30;99.90
51996;DHT22;38010;53.264;6.592;2022-08-21T09:32:40;22.30;99.90
51996;DHT22;38010;53.264;6.592;2022-08-21T09:35:16;22.30;99.90
51996;DHT22;38010;53.264;6.592;2022-08-21T09:43:20;22.20;99.90
51996;DHT22;38010;53.264;6.592;2022-08-21T09:45:48;22.30;99.90
51996;DHT22;38010;53.264;6.592;2022-08-21T09:48:18;22.30;99.90
51996;DHT22;38010;53.264;6.592;2022-08-21T09:50:45;22.20;99.90
51996;DHT22;38010;53.264;6.592;2022-08-21T09:53:26;22.30;99.90
51996;DHT22;38010;53.264;6.592;2022-08-21T09:56:14;22.30;99.90
51996;DHT22;38010;53.264;6.592;2022-08-21T09:59:00;22.20;99.90
51996;DHT22;38010;53.264;6.592;2022-08-21T10:01:26;22.20;99.90
51996;DHT22;38010;53.264;6.592;2022-08-21T10:04:12;22.30;99.90
51996;DHT22;38010;53.264;6.592;2022-08-21T10:06:38;22.30;99.90
51996;DHT22;38010;53.264;6.592;2022-08-21T10:09:12;22.20;99.90
51996;DHT22;38010;53.264;6.592;2022-08-21T10:11:40;22.20;99.90
51996;DHT22;38010;53.264;6.592;2022-08-21T10:14:13;22.30;99.90
51996;DHT22;38010;53.264;6.592;2022-08-21T10:16:52;22.20;99.90
51996;DHT22;38010;53.264;6.592;2022-08-21T10:22:40;22.30;99.90
51996;DHT22;38010;53.264;6.592;2022-08-21T10:25:12;22.30;99.90
51996;DHT22;38010;53.264;6.592;2022-08-21T10:27:57;22.30;99.90
51996;DHT22;38010;53.264;6.592;2022-08-21T10:33:40;22.30;99.90
51996;DHT22;38010;53.264;6.592;2022-08-21T10:36:18;22.30;99.90
51996;DHT22;38010;53.264;6.592;2022-08-21T10:47:00;22.30;99.90
51996;DHT22;38010;53.264;6.592;2022-08-21T10:49:38;22.30;99.90
51996;DHT22;38010;53.264;6.592;2022-08-21T10:57:18;22.30;99.90
51996;DHT22;38010;53.264;6.592;2022-08-21T10:59:52;22.30;99.90
51996;DHT22;38010;53.264;6.592;2022-08-21T11:02:37;22.30;99.90
51996;DHT22;38010;53.264;6.592;2022-08-21T11:12:49;22.30;99.90
51996;DHT22;38010;53.264;6.592;2022-08-21T11:20:46;22.30;99.90
51996;DHT22;38010;53.264;6.592;2022-08-21T11:23:28;22.30;99.90
51996;DHT22;38010;53.264;6.592;2022-08-21T11:26:05;22.30;99.90
51996;DHT22;38010;53.264;6.592;2022-08-21T11:28:41;22.30;99.90
51996;DHT22;38010;53.264;6.592;2022-08-21T11:34:13;22.30;99.90
51996;DHT22;38010;53.264;6.592;2022-08-21T11:42:32;22.40;99.90
51996;DHT22;38010;53.264;6.592;2022-08-21T11:48:02;22.40;99.90
51996;DHT22;38010;53.264;6.592;2022-08-21T11:50:32;22.30;99.90
51996;DHT22;38010;53.264;6.592;2022-08-21T11:55:31;22.40;99.90
51996;DHT22;38010;53.264;6.592;2022-08-21T11:58:18;22.30;99.90
51996;DHT22;38010;53.264;6.592;2022-08-21T12:00:50;22.30;99.90
51996;DHT22;38010;53.264;6.592;2022-08-21T12:03:29;22.30;99.90
51996;DHT22;38010;53.264;6.592;2022-08-21T12:06:02;22.30;99.90
51996;DHT22;38010;53.264;6.592;2022-08-21T12:08:33;22.30;99.90
51996;DHT22;38010;53.264;6.592;2022-08-21T12:13:53;22.30;99.90
51996;DHT22;38010;53.264;6.592;2022-08-21T12:16:34;22.30;99.90
51996;DHT22;38010;53.264;6.592;2022-08-21T12:21:50;22.30;99.90
51996;DHT22;38010;53.264;6.592;2022-08-21T12:24:17;22.30;99.90
51996;DHT22;38010;53.264;6.592;2022-08-21T12:26:58;22.30;99.90
51996;DHT22;38010;53.264;6.592;2022-08-21T12:29:28;22.30;99.90
51996;DHT22;38010;53.264;6.592;2022-08-21T12:37:30;22.40;99.90
51996;DHT22;38010;53.264;6.592;2022-08-21T12:40:00;22.40;99.90
51996;DHT22;38010;53.264;6.592;2022-08-21T12:42:49;22.40;99.90
51996;DHT22;38010;53.264;6.592;2022-08-21T12:48:11;22.50;99.90
51996;DHT22;38010;53.264;6.592;2022-08-21T12:50:43;22.50;99.90
51996;DHT22;38010;53.264;6.592;2022-08-21T12:53:26;22.60;99.90
51996;DHT22;38010;53.264;6.592;2022-08-21T12:55:53;22.60;99.90
51996;DHT22;38010;53.264;6.592;2022-08-21T12:58:25;22.70;99.90
51996;DHT22;38010;53.264;6.592;2022-08-21T13:00:54;22.80;99.90
51996;DHT22;38010;53.264;6.592;2022-08-21T13:03:22;22.90;99.90
51996;DHT22;38010;53.264;6.592;2022-08-21T13:05:48;23.00;99.90
51996;DHT22;38010;53.264;6.592;2022-08-21T13:08:17;23.00;99.90
51996;DHT22;38010;53.264;6.592;2022-08-21T13:10:47;23.00;99.90
51996;DHT22;38010;53.264;6.592;2022-08-21T13:13:20;22.90;99.90
51996;DHT22;38010;53.264;6.592;2022-08-21T13:15:46;22.90;99.90
51996;DHT22;38010;53.264;6.592;2022-08-21T13:18:25;22.90;99.90
51996;DHT22;38010;53.264;6.592;2022-08-21T13:20:51;22.90;99.90
51996;DHT22;38010;53.264;6.592;2022-08-21T13:23:29;22.90;99.90
51996;DHT22;38010;53.264;6.592;2022-08-21T13:25:56;22.90;99.90
51996;DHT22;38010;53.264;6.592;2022-08-21T13:28:21;22.90;99.90
51996;DHT22;38010;53.264;6.592;2022-08-21T13:30:53;22.90;99.90
51996;DHT22;38010;53.264;6.592;2022-08-21T13:33:24;22.80;99.90
51996;DHT22;38010;53.264;6.592;2022-08-21T13:38:25;22.70;99.90
51996;DHT22;38010;53.264;6.592;2022-08-21T13:43:45;22.70;99.90
51996;DHT22;38010;53.264;6.592;2022-08-21T13:46:12;22.70;99.90
51996;DHT22;38010;53.264;6.592;2022-08-21T13:48:39;22.70;99.90
51996;DHT22;38010;53.264;6.592;2022-08-21T13:51:05;22.70;99.90
51996;DHT22;38010;53.264;6.592;2022-08-21T13:53:43;22.70;99.90
51996;DHT22;38010;53.264;6.592;2022-08-21T13:56:25;22.60;99.90
51996;DHT22;38010;53.264;6.592;2022-08-21T13:58:52;22.60;99.90
51996;DHT22;38010;53.264;6.592;2022-08-21T14:01:31;22.60;99.90
51996;DHT22;38010;53.264;6.592;2022-08-21T14:04:16;22.60;99.90
51996;DHT22;38010;53.264;6.592;2022-08-21T14:06:45;22.60;99.90
51996;DHT22;38010;53.264;6.592;2022-08-21T14:09:31;22.60;99.90
51996;DHT22;38010;53.264;6.592;2022-08-21T14:12:04;22.60;99.90
51996;DHT22;38010;53.264;6.592;2022-08-21T14:14:39;22.50;99.90
51996;DHT22;38010;53.264;6.592;2022-08-21T14:17:08;22.50;99.90
51996;DHT22;38010;53.264;6.592;2022-08-21T14:24:47;22.50;99.90
51996;DHT22;38010;53.264;6.592;2022-08-21T14:27:17;22.50;99.90
51996;DHT22;38010;53.264;6.592;2022-08-21T14:29:43;22.50;99.90
51996;DHT22;38010;53.264;6.592;2022-08-21T14:32:35;22.50;99.90
51996;DHT22;38010;53.264;6.592;2022-08-21T14:35:02;22.50;99.90
51996;DHT22;38010;53.264;6.592;2022-08-21T14:37:27;22.50;99.90
51996;DHT22;38010;53.264;6.592;2022-08-21T14:39:53;22.50;99.90
51996;DHT22;38010;53.264;6.592;2022-08-21T14:42:19;22.50;99.90
51996;DHT22;38010;53.264;6.592;2022-08-21T14:44:45;22.50;99.90
51996;DHT22;38010;53.264;6.592;2022-08-21T14:47:10;22.50;99.90
51996;DHT22;38010;53.264;6.592;2022-08-21T14:49:36;22.50;99.90
51996;DHT22;38010;53.264;6.592;2022-08-21T14:52:02;22.50;99.90
51996;DHT22;38010;53.264;6.592;2022-08-21T14:54:29;22.50;99.90
51996;DHT22;38010;53.264;6.592;2022-08-21T14:56:57;22.50;99.90
51996;DHT22;38010;53.264;6.592;2022-08-21T14:59:23;22.50;99.90
51996;DHT22;38010;53.264;6.592;2022-08-21T15:01:51;22.50;99.90
51996;DHT22;38010;53.264;6.592;2022-08-21T15:04:17;22.50;99.90
51996;DHT22;38010;53.264;6.592;2022-08-21T15:06:43;22.50;99.90
51996;DHT22;38010;53.264;6.592;2022-08-21T15:09:09;22.50;99.90
51996;DHT22;38010;53.264;6.592;2022-08-21T15:11:34;22.50;99.90
51996;DHT22;38010;53.264;6.592;2022-08-21T15:14:02;22.50;99.90
51996;DHT22;38010;53.264;6.592;2022-08-21T15:16:29;22.50;99.90
51996;DHT22;38010;53.264;6.592;2022-08-21T15:18:57;22.50;99.90
51996;DHT22;38010;53.264;6.592;2022-08-21T15:21:23;22.50;99.90
51996;DHT22;38010;53.264;6.592;2022-08-21T15:23:48;22.50;99.90
51996;DHT22;38010;53.264;6.592;2022-08-21T15:26:14;22.50;99.90
51996;DHT22;38010;53.264;6.592;2022-08-21T15:28:40;22.50;99.90
51996;DHT22;38010;53.264;6.592;2022-08-21T15:31:06;22.60;99.90
51996;DHT22;38010;53.264;6.592;2022-08-21T15:33:32;22.50;99.90
51996;DHT22;38010;53.264;6.592;2022-08-21T15:35:58;22.60;99.90
51996;DHT22;38010;53.264;6.592;2022-08-21T15:38:24;22.60;99.90
51996;DHT22;38010;53.264;6.592;2022-08-21T15:40:50;22.60;99.90
51996;DHT22;38010;53.264;6.592;2022-08-21T15:43:25;22.60;99.90
51996;DHT22;38010;53.264;6.592;2022-08-21T15:45:51;22.60;99.90
51996;DHT22;38010;53.264;6.592;2022-08-21T15:48:17;22.60;99.90
51996;DHT22;38010;53.264;6.592;2022-08-21T15:50:43;22.60;99.90
51996;DHT22;38010;53.264;6.592;2022-08-21T15:53:08;22.60;99.90
51996;DHT22;38010;53.264;6.592;2022-08-21T15:55:34;22.60;99.90
51996;DHT22;38010;53.264;6.592;2022-08-21T15:58:00;22.60;99.90
51996;DHT22;38010;53.264;6.592;2022-08-21T16:00:26;22.60;99.90
51996;DHT22;38010;53.264;6.592;2022-08-21T16:02:55;22.60;99.90
51996;DHT22;38010;53.264;6.592;2022-08-21T16:05:22;22.60;99.90
51996;DHT22;38010;53.264;6.592;2022-08-21T16:07:49;22.60;99.90
51996;DHT22;38010;53.264;6.592;2022-08-21T16:10:18;22.60;99.90
51996;DHT22;38010;53.264;6.592;2022-08-21T16:12:49;22.60;99.90
51996;DHT22;38010;53.264;6.592;2022-08-21T16:15:16;22.60;99.90
51996;DHT22;38010;53.264;6.592;2022-08-21T16:17:44;22.60;99.90
51996;DHT22;38010;53.264;6.592;2022-08-21T16:20:19;22.60;99.90
51996;DHT22;38010;53.264;6.592;2022-08-21T16:22:45;22.60;99.90
51996;DHT22;38010;53.264;6.592;2022-08-21T16:25:13;22.60;99.90
51996;DHT22;38010;53.264;6.592;2022-08-21T16:27:40;22.60;99.90
51996;DHT22;38010;53.264;6.592;2022-08-21T16:30:07;22.60;99.90
51996;DHT22;38010;53.264;6.592;2022-08-21T16:32:33;22.60;99.90
51996;DHT22;38010;53.264;6.592;2022-08-21T16:35:00;22.60;99.90
51996;DHT22;38010;53.264;6.592;2022-08-21T16:37:26;22.60;99.90
51996;DHT22;38010;53.264;6.592;2022-08-21T16:39:52;22.60;99.90
51996;DHT22;38010;53.264;6.592;2022-08-21T16:42:22;22.60;99.90
51996;DHT22;38010;53.264;6.592;2022-08-21T16:44:48;22.60;99.90
51996;DHT22;38010;53.264;6.592;2022-08-21T16:47:13;22.60;99.90
51996;DHT22;38010;53.264;6.592;2022-08-21T16:49:40;22.60;99.90
51996;DHT22;38010;53.264;6.592;2022-08-21T16:52:06;22.60;99.90
51996;DHT22;38010;53.264;6.592;2022-08-21T16:54:32;22.60;99.90
51996;DHT22;38010;53.264;6.592;2022-08-21T16:56:58;22.60;99.90
51996;DHT22;38010;53.264;6.592;2022-08-21T16:59:24;22.60;99.90
51996;DHT22;38010;53.264;6.592;2022-08-21T17:01:51;22.60;99.90
51996;DHT22;38010;53.264;6.592;2022-08-21T17:04:17;22.60;99.90
51996;DHT22;38010;53.264;6.592;2022-08-21T17:06:42;22.60;99.90
51996;DHT22;38010;53.264;6.592;2022-08-21T17:09:08;22.60;99.90
51996;DHT22;38010;53.264;6.592;2022-08-21T17:11:42;22.60;99.90
51996;DHT22;38010;53.264;6.592;2022-08-21T17:14:21;22.60;99.90